FLL weather

Fort Lauderdale Hollywood International Airport
Fort Lauderdale, Florida, United States

Public forecast

Using degrees Fahrenheit for public forecast. Weather courtesy of forecast.io.

METAR (pilot weather report)

Retrieved 2019/04/21 10:53 UTC (1 hour ago):

KFLL 211053Z 00000KT 10SM CLR 18/09 A3008 RMK AO2 SLP184 T01780094

TAF (pilot weather forecast)

Retrieved 2019/04/21 06:48 UTC (5 hours ago):

TAF KFLL 210542Z 2106/2212 32006KT P6SM SKC FM211200 33011KT P6SM FEW040 FM211800 02011KT P6SM FEW040 FM212200 08011KT P6SM FEW040 FM220200 05006KT P6SM SKC